sensor_id;sensor_type;location;lat;lon;timestamp;P1;durP1;ratioP1;P2;durP2;ratioP2
72949;SDS011;64868;45.710;9.590;2022-12-07T00:00:53;8.77;;;3.50;;
72949;SDS011;64868;45.710;9.590;2022-12-07T00:03:19;7.72;;;3.70;;
72949;SDS011;64868;45.710;9.590;2022-12-07T00:05:45;10.15;;;3.67;;
72949;SDS011;64868;45.710;9.590;2022-12-07T00:08:11;8.93;;;3.78;;
72949;SDS011;64868;45.710;9.590;2022-12-07T00:10:36;8.82;;;3.80;;
72949;SDS011;64868;45.710;9.590;2022-12-07T00:13:02;8.35;;;3.65;;
72949;SDS011;64868;45.710;9.590;2022-12-07T00:15:27;8.73;;;3.83;;
72949;SDS011;64868;45.710;9.590;2022-12-07T00:17:53;8.35;;;3.92;;
72949;SDS011;64868;45.710;9.590;2022-12-07T00:20:18;8.35;;;3.90;;
72949;SDS011;64868;45.710;9.590;2022-12-07T00:22:47;8.50;;;3.55;;
72949;SDS011;64868;45.710;9.590;2022-12-07T00:25:12;8.38;;;3.42;;
72949;SDS011;64868;45.710;9.590;2022-12-07T00:27:37;10.70;;;3.58;;
72949;SDS011;64868;45.710;9.590;2022-12-07T00:30:03;7.45;;;3.30;;
72949;SDS011;64868;45.710;9.590;2022-12-07T00:32:29;8.93;;;3.53;;
72949;SDS011;64868;45.710;9.590;2022-12-07T00:34:55;9.35;;;3.70;;
72949;SDS011;64868;45.710;9.590;2022-12-07T00:37:20;8.05;;;3.08;;
72949;SDS011;64868;45.710;9.590;2022-12-07T00:39:45;10.10;;;3.80;;
72949;SDS011;64868;45.710;9.590;2022-12-07T00:42:11;9.52;;;3.78;;
72949;SDS011;64868;45.710;9.590;2022-12-07T00:44:37;8.55;;;3.40;;
72949;SDS011;64868;45.710;9.590;2022-12-07T00:47:02;7.75;;;3.42;;
72949;SDS011;64868;45.710;9.590;2022-12-07T00:49:28;7.75;;;3.10;;
72949;SDS011;64868;45.710;9.590;2022-12-07T00:51:53;8.90;;;3.53;;
72949;SDS011;64868;45.710;9.590;2022-12-07T00:54:19;8.55;;;3.15;;
72949;SDS011;64868;45.710;9.590;2022-12-07T00:56:45;7.05;;;2.85;;
72949;SDS011;64868;45.710;9.590;2022-12-07T00:59:12;7.55;;;2.70;;
72949;SDS011;64868;45.710;9.590;2022-12-07T01:01:42;7.78;;;2.92;;
72949;SDS011;64868;45.710;9.590;2022-12-07T01:04:08;6.60;;;2.65;;
72949;SDS011;64868;45.710;9.590;2022-12-07T01:06:34;7.22;;;2.70;;
72949;SDS011;64868;45.710;9.590;2022-12-07T01:08:59;8.88;;;3.00;;
72949;SDS011;64868;45.710;9.590;2022-12-07T01:11:26;6.68;;;2.30;;
72949;SDS011;64868;45.710;9.590;2022-12-07T01:13:54;7.47;;;2.40;;
72949;SDS011;64868;45.710;9.590;2022-12-07T01:16:21;7.95;;;3.22;;
72949;SDS011;64868;45.710;9.590;2022-12-07T01:18:48;7.50;;;2.60;;
72949;SDS011;64868;45.710;9.590;2022-12-07T01:21:22;6.68;;;2.50;;
72949;SDS011;64868;45.710;9.590;2022-12-07T01:23:50;6.85;;;2.60;;
72949;SDS011;64868;45.710;9.590;2022-12-07T01:26:17;8.80;;;3.03;;
72949;SDS011;64868;45.710;9.590;2022-12-07T01:28:44;9.93;;;2.97;;
72949;SDS011;64868;45.710;9.590;2022-12-07T01:31:12;7.88;;;2.50;;
72949;SDS011;64868;45.710;9.590;2022-12-07T01:33:41;7.07;;;2.80;;
72949;SDS011;64868;45.710;9.590;2022-12-07T01:36:12;6.38;;;2.40;;
72949;SDS011;64868;45.710;9.590;2022-12-07T01:38:43;6.38;;;2.25;;
72949;SDS011;64868;45.710;9.590;2022-12-07T01:41:11;6.35;;;2.38;;
72949;SDS011;64868;45.710;9.590;2022-12-07T01:44:06;5.95;;;2.10;;
72949;SDS011;64868;45.710;9.590;2022-12-07T01:46:37;6.72;;;2.55;;
72949;SDS011;64868;45.710;9.590;2022-12-07T01:49:04;6.60;;;2.42;;
72949;SDS011;64868;45.710;9.590;2022-12-07T01:51:34;6.45;;;2.17;;
72949;SDS011;64868;45.710;9.590;2022-12-07T01:54:02;6.18;;;2.05;;
72949;SDS011;64868;45.710;9.590;2022-12-07T01:56:28;5.68;;;1.85;;
72949;SDS011;64868;45.710;9.590;2022-12-07T01:58:55;5.85;;;1.83;;
72949;SDS011;64868;45.710;9.590;2022-12-07T02:01:25;5.57;;;2.03;;
72949;SDS011;64868;45.710;9.590;2022-12-07T02:03:50;7.65;;;2.22;;
72949;SDS011;64868;45.710;9.590;2022-12-07T02:06:19;8.30;;;2.58;;
72949;SDS011;64868;45.710;9.590;2022-12-07T02:08:48;6.32;;;2.10;;
72949;SDS011;64868;45.710;9.590;2022-12-07T02:11:14;7.15;;;2.22;;
72949;SDS011;64868;45.710;9.590;2022-12-07T02:13:41;5.63;;;1.90;;
72949;SDS011;64868;45.710;9.590;2022-12-07T02:24:31;6.35;;;1.92;;
72949;SDS011;64868;45.710;9.590;2022-12-07T02:30:14;5.32;;;1.90;;
72949;SDS011;64868;45.710;9.590;2022-12-07T02:40:48;8.23;;;2.42;;
72949;SDS011;64868;45.710;9.590;2022-12-07T02:43:24;7.00;;;2.33;;
72949;SDS011;64868;45.710;9.590;2022-12-07T02:45:53;7.13;;;2.33;;
72949;SDS011;64868;45.710;9.590;2022-12-07T02:48:24;6.60;;;2.55;;
72949;SDS011;64868;45.710;9.590;2022-12-07T02:50:51;6.72;;;2.28;;
72949;SDS011;64868;45.710;9.590;2022-12-07T02:53:28;5.97;;;1.85;;
72949;SDS011;64868;45.710;9.590;2022-12-07T02:56:06;6.13;;;2.38;;
72949;SDS011;64868;45.710;9.590;2022-12-07T03:01:09;6.88;;;2.30;;
72949;SDS011;64868;45.710;9.590;2022-12-07T03:03:48;6.75;;;1.75;;
72949;SDS011;64868;45.710;9.590;2022-12-07T03:06:31;6.43;;;2.35;;
72949;SDS011;64868;45.710;9.590;2022-12-07T03:12:09;6.22;;;2.00;;
72949;SDS011;64868;45.710;9.590;2022-12-07T03:14:45;6.18;;;1.77;;
72949;SDS011;64868;45.710;9.590;2022-12-07T03:17:30;5.88;;;1.85;;
72949;SDS011;64868;45.710;9.590;2022-12-07T03:20:00;5.57;;;1.95;;
72949;SDS011;64868;45.710;9.590;2022-12-07T03:22:29;6.03;;;2.08;;
72949;SDS011;64868;45.710;9.590;2022-12-07T03:24:59;5.97;;;2.22;;
72949;SDS011;64868;45.710;9.590;2022-12-07T03:27:33;5.47;;;1.95;;
72949;SDS011;64868;45.710;9.590;2022-12-07T03:30:04;5.32;;;1.83;;
72949;SDS011;64868;45.710;9.590;2022-12-07T03:35:02;6.10;;;1.80;;
72949;SDS011;64868;45.710;9.590;2022-12-07T03:37:31;6.47;;;2.10;;
72949;SDS011;64868;45.710;9.590;2022-12-07T03:42:33;5.07;;;1.85;;
72949;SDS011;64868;45.710;9.590;2022-12-07T03:45:00;6.50;;;2.20;;
72949;SDS011;64868;45.710;9.590;2022-12-07T03:47:29;7.65;;;1.73;;
72949;SDS011;64868;45.710;9.590;2022-12-07T03:50:06;5.97;;;1.88;;
72949;SDS011;64868;45.710;9.590;2022-12-07T03:52:52;5.45;;;1.70;;
72949;SDS011;64868;45.710;9.590;2022-12-07T03:55:28;4.72;;;1.48;;
72949;SDS011;64868;45.710;9.590;2022-12-07T03:57:58;6.55;;;1.90;;
72949;SDS011;64868;45.710;9.590;2022-12-07T04:00:27;4.97;;;1.58;;
72949;SDS011;64868;45.710;9.590;2022-12-07T04:02:53;6.72;;;2.08;;
72949;SDS011;64868;45.710;9.590;2022-12-07T04:05:20;6.68;;;1.67;;
72949;SDS011;64868;45.710;9.590;2022-12-07T04:07:45;5.13;;;1.85;;
72949;SDS011;64868;45.710;9.590;2022-12-07T04:10:11;5.82;;;1.88;;
72949;SDS011;64868;45.710;9.590;2022-12-07T04:12:36;7.10;;;1.63;;
72949;SDS011;64868;45.710;9.590;2022-12-07T04:15:02;6.45;;;1.60;;
72949;SDS011;64868;45.710;9.590;2022-12-07T04:17:28;5.82;;;1.50;;
72949;SDS011;64868;45.710;9.590;2022-12-07T04:19:54;6.22;;;1.80;;
72949;SDS011;64868;45.710;9.590;2022-12-07T04:22:20;5.70;;;1.50;;
72949;SDS011;64868;45.710;9.590;2022-12-07T04:24:45;5.00;;;1.50;;
72949;SDS011;64868;45.710;9.590;2022-12-07T04:27:11;5.03;;;1.40;;
72949;SDS011;64868;45.710;9.590;2022-12-07T04:29:36;5.30;;;1.88;;
72949;SDS011;64868;45.710;9.590;2022-12-07T04:32:02;4.72;;;1.40;;
72949;SDS011;64868;45.710;9.590;2022-12-07T04:34:27;5.50;;;1.70;;
72949;SDS011;64868;45.710;9.590;2022-12-07T04:36:53;6.72;;;1.50;;
72949;SDS011;64868;45.710;9.590;2022-12-07T04:39:20;5.07;;;1.33;;
72949;SDS011;64868;45.710;9.590;2022-12-07T04:41:46;6.20;;;1.70;;
72949;SDS011;64868;45.710;9.590;2022-12-07T04:44:12;5.13;;;1.35;;
72949;SDS011;64868;45.710;9.590;2022-12-07T04:46:39;4.38;;;1.40;;
72949;SDS011;64868;45.710;9.590;2022-12-07T04:49:05;5.97;;;1.40;;
72949;SDS011;64868;45.710;9.590;2022-12-07T04:51:31;5.05;;;1.42;;
72949;SDS011;64868;45.710;9.590;2022-12-07T04:53:57;5.47;;;1.42;;
72949;SDS011;64868;45.710;9.590;2022-12-07T04:56:23;5.15;;;1.30;;
72949;SDS011;64868;45.710;9.590;2022-12-07T04:58:51;4.35;;;1.40;;
72949;SDS011;64868;45.710;9.590;2022-12-07T05:01:18;5.97;;;1.20;;
72949;SDS011;64868;45.710;9.590;2022-12-07T05:03:44;4.78;;;1.45;;
72949;SDS011;64868;45.710;9.590;2022-12-07T05:06:10;6.10;;;1.35;;
72949;SDS011;64868;45.710;9.590;2022-12-07T05:08:40;6.22;;;1.60;;
72949;SDS011;64868;45.710;9.590;2022-12-07T05:11:07;5.22;;;1.55;;
72949;SDS011;64868;45.710;9.590;2022-12-07T05:13:33;4.88;;;1.52;;
72949;SDS011;64868;45.710;9.590;2022-12-07T05:15:59;5.05;;;1.40;;
72949;SDS011;64868;45.710;9.590;2022-12-07T05:18:25;5.07;;;1.50;;
72949;SDS011;64868;45.710;9.590;2022-12-07T05:20:51;5.60;;;1.38;;
72949;SDS011;64868;45.710;9.590;2022-12-07T05:23:17;5.15;;;1.65;;
72949;SDS011;64868;45.710;9.590;2022-12-07T05:25:43;5.70;;;1.73;;
72949;SDS011;64868;45.710;9.590;2022-12-07T05:28:09;6.30;;;1.70;;
72949;SDS011;64868;45.710;9.590;2022-12-07T05:30:35;6.43;;;1.70;;
72949;SDS011;64868;45.710;9.590;2022-12-07T05:33:01;5.20;;;1.65;;
72949;SDS011;64868;45.710;9.590;2022-12-07T05:35:28;4.97;;;1.52;;
72949;SDS011;64868;45.710;9.590;2022-12-07T05:37:54;5.07;;;1.65;;
72949;SDS011;64868;45.710;9.590;2022-12-07T05:40:20;5.40;;;1.58;;
72949;SDS011;64868;45.710;9.590;2022-12-07T05:42:46;7.38;;;2.10;;
72949;SDS011;64868;45.710;9.590;2022-12-07T05:45:11;5.00;;;1.63;;
72949;SDS011;64868;45.710;9.590;2022-12-07T05:47:37;6.03;;;1.90;;
72949;SDS011;64868;45.710;9.590;2022-12-07T05:50:03;6.03;;;1.77;;
72949;SDS011;64868;45.710;9.590;2022-12-07T05:52:31;5.40;;;1.85;;
72949;SDS011;64868;45.710;9.590;2022-12-07T05:54:56;7.78;;;2.30;;
72949;SDS011;64868;45.710;9.590;2022-12-07T05:57:22;5.28;;;1.50;;
72949;SDS011;64868;45.710;9.590;2022-12-07T05:59:47;7.05;;;1.70;;
72949;SDS011;64868;45.710;9.590;2022-12-07T06:02:13;5.53;;;1.60;;
72949;SDS011;64868;45.710;9.590;2022-12-07T06:04:41;5.55;;;1.75;;
72949;SDS011;64868;45.710;9.590;2022-12-07T06:07:09;5.40;;;1.65;;
72949;SDS011;64868;45.710;9.590;2022-12-07T06:09:35;6.50;;;1.90;;
72949;SDS011;64868;45.710;9.590;2022-12-07T06:12:02;6.05;;;2.00;;
72949;SDS011;64868;45.710;9.590;2022-12-07T06:14:46;6.03;;;1.98;;
72949;SDS011;64868;45.710;9.590;2022-12-07T06:17:12;5.25;;;1.73;;
72949;SDS011;64868;45.710;9.590;2022-12-07T06:19:39;10.00;;;2.03;;
72949;SDS011;64868;45.710;9.590;2022-12-07T06:22:05;7.13;;;1.90;;
72949;SDS011;64868;45.710;9.590;2022-12-07T06:24:32;4.75;;;1.52;;
72949;SDS011;64868;45.710;9.590;2022-12-07T06:26:58;6.05;;;1.75;;
72949;SDS011;64868;45.710;9.590;2022-12-07T06:29:24;6.00;;;1.67;;
72949;SDS011;64868;45.710;9.590;2022-12-07T06:31:50;5.13;;;1.67;;
72949;SDS011;64868;45.710;9.590;2022-12-07T06:34:17;5.57;;;2.05;;
72949;SDS011;64868;45.710;9.590;2022-12-07T06:36:44;6.65;;;1.90;;
72949;SDS011;64868;45.710;9.590;2022-12-07T06:39:10;5.53;;;2.05;;
72949;SDS011;64868;45.710;9.590;2022-12-07T06:41:36;4.70;;;1.58;;
72949;SDS011;64868;45.710;9.590;2022-12-07T06:44:03;4.90;;;1.52;;
72949;SDS011;64868;45.710;9.590;2022-12-07T06:46:31;6.45;;;1.92;;
72949;SDS011;64868;45.710;9.590;2022-12-07T06:48:56;5.55;;;1.70;;
72949;SDS011;64868;45.710;9.590;2022-12-07T06:51:22;7.65;;;1.60;;
72949;SDS011;64868;45.710;9.590;2022-12-07T06:53:48;6.15;;;1.83;;
72949;SDS011;64868;45.710;9.590;2022-12-07T06:56:13;6.50;;;1.58;;
72949;SDS011;64868;45.710;9.590;2022-12-07T06:58:39;5.30;;;1.65;;
72949;SDS011;64868;45.710;9.590;2022-12-07T07:01:15;6.88;;;2.03;;
72949;SDS011;64868;45.710;9.590;2022-12-07T07:03:43;5.57;;;1.75;;
72949;SDS011;64868;45.710;9.590;2022-12-07T07:06:09;6.57;;;2.00;;
72949;SDS011;64868;45.710;9.590;2022-12-07T07:08:36;5.65;;;1.95;;
72949;SDS011;64868;45.710;9.590;2022-12-07T07:11:02;5.90;;;1.90;;
72949;SDS011;64868;45.710;9.590;2022-12-07T07:13:28;5.38;;;1.80;;
72949;SDS011;64868;45.710;9.590;2022-12-07T07:15:54;9.55;;;1.90;;
72949;SDS011;64868;45.710;9.590;2022-12-07T07:18:20;5.45;;;1.77;;
72949;SDS011;64868;45.710;9.590;2022-12-07T07:20:46;5.57;;;1.77;;
72949;SDS011;64868;45.710;9.590;2022-12-07T07:23:14;6.00;;;1.83;;
72949;SDS011;64868;45.710;9.590;2022-12-07T07:25:39;7.70;;;2.75;;
72949;SDS011;64868;45.710;9.590;2022-12-07T07:28:05;5.53;;;1.75;;
72949;SDS011;64868;45.710;9.590;2022-12-07T07:30:31;4.93;;;1.60;;
72949;SDS011;64868;45.710;9.590;2022-12-07T07:33:00;4.97;;;1.45;;
72949;SDS011;64868;45.710;9.590;2022-12-07T07:35:27;8.02;;;1.75;;
72949;SDS011;64868;45.710;9.590;2022-12-07T07:37:53;6.05;;;1.75;;
72949;SDS011;64868;45.710;9.590;2022-12-07T07:40:19;7.20;;;1.80;;
72949;SDS011;64868;45.710;9.590;2022-12-07T07:42:46;7.22;;;1.92;;
72949;SDS011;64868;45.710;9.590;2022-12-07T07:45:13;5.50;;;1.73;;
72949;SDS011;64868;45.710;9.590;2022-12-07T07:47:39;5.45;;;1.60;;
72949;SDS011;64868;45.710;9.590;2022-12-07T07:50:04;7.72;;;1.83;;
72949;SDS011;64868;45.710;9.590;2022-12-07T07:52:30;7.63;;;2.65;;
72949;SDS011;64868;45.710;9.590;2022-12-07T07:54:56;7.18;;;2.03;;
72949;SDS011;64868;45.710;9.590;2022-12-07T07:57:24;7.20;;;1.95;;
72949;SDS011;64868;45.710;9.590;2022-12-07T07:59:49;6.47;;;1.92;;
72949;SDS011;64868;45.710;9.590;2022-12-07T08:02:15;6.07;;;1.80;;
72949;SDS011;64868;45.710;9.590;2022-12-07T08:04:43;5.22;;;1.83;;
72949;SDS011;64868;45.710;9.590;2022-12-07T08:07:11;7.93;;;1.73;;
72949;SDS011;64868;45.710;9.590;2022-12-07T08:09:38;5.10;;;1.60;;
72949;SDS011;64868;45.710;9.590;2022-12-07T08:12:14;5.30;;;1.50;;
72949;SDS011;64868;45.710;9.590;2022-12-07T08:14:39;5.28;;;1.70;;
72949;SDS011;64868;45.710;9.590;2022-12-07T08:17:05;8.30;;;1.80;;
72949;SDS011;64868;45.710;9.590;2022-12-07T08:19:30;7.95;;;1.70;;
72949;SDS011;64868;45.710;9.590;2022-12-07T08:21:56;5.88;;;2.00;;
72949;SDS011;64868;45.710;9.590;2022-12-07T08:24:21;5.53;;;1.67;;
72949;SDS011;64868;45.710;9.590;2022-12-07T08:26:47;5.65;;;1.98;;
72949;SDS011;64868;45.710;9.590;2022-12-07T08:29:13;5.35;;;1.60;;
72949;SDS011;64868;45.710;9.590;2022-12-07T08:31:38;6.03;;;1.67;;
72949;SDS011;64868;45.710;9.590;2022-12-07T08:34:07;5.50;;;1.73;;
72949;SDS011;64868;45.710;9.590;2022-12-07T08:36:35;5.35;;;1.60;;
72949;SDS011;64868;45.710;9.590;2022-12-07T08:39:01;4.78;;;1.73;;
72949;SDS011;64868;45.710;9.590;2022-12-07T08:41:27;6.10;;;1.75;;
72949;SDS011;64868;45.710;9.590;2022-12-07T08:43:53;5.18;;;1.70;;
72949;SDS011;64868;45.710;9.590;2022-12-07T08:46:19;5.45;;;1.63;;
72949;SDS011;64868;45.710;9.590;2022-12-07T08:48:51;5.35;;;1.80;;
72949;SDS011;64868;45.710;9.590;2022-12-07T08:51:17;5.65;;;2.03;;
72949;SDS011;64868;45.710;9.590;2022-12-07T08:53:44;8.80;;;2.28;;
72949;SDS011;64868;45.710;9.590;2022-12-07T08:56:10;5.90;;;1.90;;
72949;SDS011;64868;45.710;9.590;2022-12-07T08:58:36;6.18;;;1.77;;
72949;SDS011;64868;45.710;9.590;2022-12-07T09:01:04;5.40;;;2.00;;
72949;SDS011;64868;45.710;9.590;2022-12-07T09:03:29;6.45;;;2.47;;
72949;SDS011;64868;45.710;9.590;2022-12-07T09:05:55;5.75;;;2.42;;
72949;SDS011;64868;45.710;9.590;2022-12-07T09:08:21;7.20;;;2.20;;
72949;SDS011;64868;45.710;9.590;2022-12-07T09:10:51;5.82;;;1.65;;
72949;SDS011;64868;45.710;9.590;2022-12-07T09:13:16;7.00;;;2.13;;
72949;SDS011;64868;45.710;9.590;2022-12-07T09:15:41;5.05;;;1.90;;
72949;SDS011;64868;45.710;9.590;2022-12-07T09:18:07;6.95;;;1.92;;
72949;SDS011;64868;45.710;9.590;2022-12-07T09:20:32;9.68;;;2.08;;
72949;SDS011;64868;45.710;9.590;2022-12-07T09:22:58;8.52;;;1.95;;
72949;SDS011;64868;45.710;9.590;2022-12-07T09:25:24;4.90;;;1.77;;
72949;SDS011;64868;45.710;9.590;2022-12-07T09:27:54;6.85;;;1.75;;
72949;SDS011;64868;45.710;9.590;2022-12-07T09:30:21;5.47;;;2.00;;
72949;SDS011;64868;45.710;9.590;2022-12-07T09:32:46;4.38;;;1.65;;
72949;SDS011;64868;45.710;9.590;2022-12-07T09:35:11;4.70;;;1.70;;
72949;SDS011;64868;45.710;9.590;2022-12-07T09:37:37;6.93;;;2.15;;
72949;SDS011;64868;45.710;9.590;2022-12-07T09:40:03;5.53;;;2.00;;
72949;SDS011;64868;45.710;9.590;2022-12-07T09:42:31;7.47;;;1.88;;
72949;SDS011;64868;45.710;9.590;2022-12-07T09:44:59;9.13;;;2.00;;
72949;SDS011;64868;45.710;9.590;2022-12-07T09:47:26;7.47;;;2.28;;
72949;SDS011;64868;45.710;9.590;2022-12-07T09:49:53;9.40;;;2.00;;
72949;SDS011;64868;45.710;9.590;2022-12-07T09:52:26;7.03;;;1.90;;
72949;SDS011;64868;45.710;9.590;2022-12-07T09:54:53;5.45;;;1.63;;
72949;SDS011;64868;45.710;9.590;2022-12-07T09:57:23;6.47;;;1.90;;
72949;SDS011;64868;45.710;9.590;2022-12-07T09:59:54;6.55;;;1.90;;
72949;SDS011;64868;45.710;9.590;2022-12-07T10:02:24;7.82;;;2.20;;
72949;SDS011;64868;45.710;9.590;2022-12-07T10:04:53;5.63;;;1.92;;
72949;SDS011;64868;45.710;9.590;2022-12-07T10:07:19;7.00;;;1.95;;
72949;SDS011;64868;45.710;9.590;2022-12-07T10:09:44;6.97;;;2.30;;
72949;SDS011;64868;45.710;9.590;2022-12-07T10:12:11;5.22;;;2.33;;
72949;SDS011;64868;45.710;9.590;2022-12-07T10:14:38;5.63;;;2.00;;
72949;SDS011;64868;45.710;9.590;2022-12-07T10:22:54;7.72;;;2.75;;
72949;SDS011;64868;45.710;9.590;2022-12-07T10:25:24;8.00;;;2.42;;
72949;SDS011;64868;45.710;9.590;2022-12-07T10:30:32;12.35;;;5.50;;
72949;SDS011;64868;45.710;9.590;2022-12-07T10:33:30;11.20;;;4.60;;
72949;SDS011;64868;45.710;9.590;2022-12-07T10:36:21;9.05;;;4.35;;
72949;SDS011;64868;45.710;9.590;2022-12-07T10:38:59;8.52;;;4.20;;
72949;SDS011;64868;45.710;9.590;2022-12-07T10:41:29;7.28;;;3.58;;
72949;SDS011;64868;45.710;9.590;2022-12-07T10:43:56;7.53;;;3.50;;
72949;SDS011;64868;45.710;9.590;2022-12-07T10:46:29;12.15;;;6.20;;
72949;SDS011;64868;45.710;9.590;2022-12-07T10:55:08;8.68;;;3.08;;
72949;SDS011;64868;45.710;9.590;2022-12-07T11:03:47;7.32;;;4.03;;
72949;SDS011;64868;45.710;9.590;2022-12-07T11:06:48;9.18;;;3.55;;
72949;SDS011;64868;45.710;9.590;2022-12-07T11:17:48;7.57;;;3.40;;
72949;SDS011;64868;45.710;9.590;2022-12-07T11:20:44;7.72;;;3.33;;
72949;SDS011;64868;45.710;9.590;2022-12-07T11:31:47;6.95;;;3.30;;
72949;SDS011;64868;45.710;9.590;2022-12-07T11:37:30;7.85;;;3.53;;
72949;SDS011;64868;45.710;9.590;2022-12-07T11:40:01;7.97;;;3.80;;
72949;SDS011;64868;45.710;9.590;2022-12-07T11:42:33;10.00;;;4.03;;
72949;SDS011;64868;45.710;9.590;2022-12-07T11:50:36;8.63;;;3.53;;
72949;SDS011;64868;45.710;9.590;2022-12-07T11:53:18;7.57;;;4.20;;
72949;SDS011;64868;45.710;9.590;2022-12-07T12:01:11;10.10;;;4.55;;
72949;SDS011;64868;45.710;9.590;2022-12-07T12:03:45;10.68;;;4.95;;
72949;SDS011;64868;45.710;9.590;2022-12-07T12:06:17;9.68;;;4.30;;
72949;SDS011;64868;45.710;9.590;2022-12-07T12:17:06;8.68;;;4.05;;
72949;SDS011;64868;45.710;9.590;2022-12-07T12:22:49;9.68;;;3.63;;
72949;SDS011;64868;45.710;9.590;2022-12-07T12:25:39;10.48;;;3.75;;
72949;SDS011;64868;45.710;9.590;2022-12-07T12:28:23;10.38;;;3.58;;
72949;SDS011;64868;45.710;9.590;2022-12-07T12:31:05;8.90;;;3.00;;
72949;SDS011;64868;45.710;9.590;2022-12-07T12:33:31;7.82;;;3.63;;
72949;SDS011;64868;45.710;9.590;2022-12-07T12:39:17;10.07;;;4.60;;
72949;SDS011;64868;45.710;9.590;2022-12-07T12:51:48;21.98;;;11.02;;
72949;SDS011;64868;45.710;9.590;2022-12-07T12:54:19;25.65;;;14.80;;
72949;SDS011;64868;45.710;9.590;2022-12-07T12:59:31;30.08;;;18.40;;
72949;SDS011;64868;45.710;9.590;2022-12-07T13:04:40;40.33;;;21.58;;
72949;SDS011;64868;45.710;9.590;2022-12-07T13:07:13;39.15;;;22.83;;
72949;SDS011;64868;45.710;9.590;2022-12-07T13:13:03;46.10;;;24.40;;
72949;SDS011;64868;45.710;9.590;2022-12-07T13:15:45;45.25;;;25.00;;
72949;SDS011;64868;45.710;9.590;2022-12-07T13:18:23;44.33;;;24.48;;
72949;SDS011;64868;45.710;9.590;2022-12-07T13:20:49;41.40;;;24.35;;
72949;SDS011;64868;45.710;9.590;2022-12-07T13:23:19;42.25;;;26.13;;
72949;SDS011;64868;45.710;9.590;2022-12-07T13:28:46;41.78;;;24.90;;
72949;SDS011;64868;45.710;9.590;2022-12-07T13:33:58;42.90;;;26.10;;
72949;SDS011;64868;45.710;9.590;2022-12-07T13:36:26;42.10;;;25.75;;
72949;SDS011;64868;45.710;9.590;2022-12-07T13:39:00;40.42;;;24.90;;
72949;SDS011;64868;45.710;9.590;2022-12-07T13:41:44;40.28;;;25.98;;
72949;SDS011;64868;45.710;9.590;2022-12-07T13:44:15;40.75;;;25.60;;
72949;SDS011;64868;45.710;9.590;2022-12-07T13:49:27;40.75;;;26.58;;
72949;SDS011;64868;45.710;9.590;2022-12-07T13:51:56;45.13;;;27.65;;
72949;SDS011;64868;45.710;9.590;2022-12-07T13:54:48;45.00;;;28.65;;
72949;SDS011;64868;45.710;9.590;2022-12-07T13:57:20;48.38;;;31.33;;
72949;SDS011;64868;45.710;9.590;2022-12-07T13:59:47;47.40;;;30.02;;
72949;SDS011;64868;45.710;9.590;2022-12-07T14:02:26;42.30;;;28.25;;
72949;SDS011;64868;45.710;9.590;2022-12-07T14:05:06;40.60;;;25.63;;
72949;SDS011;64868;45.710;9.590;2022-12-07T14:10:23;43.35;;;26.13;;
72949;SDS011;64868;45.710;9.590;2022-12-07T14:12:51;43.38;;;26.17;;
72949;SDS011;64868;45.710;9.590;2022-12-07T14:15:21;40.90;;;26.15;;
72949;SDS011;64868;45.710;9.590;2022-12-07T14:17:51;43.22;;;27.20;;
72949;SDS011;64868;45.710;9.590;2022-12-07T14:23:03;41.35;;;26.40;;
72949;SDS011;64868;45.710;9.590;2022-12-07T14:25:45;41.53;;;26.40;;
72949;SDS011;64868;45.710;9.590;2022-12-07T14:28:29;45.55;;;26.70;;
72949;SDS011;64868;45.710;9.590;2022-12-07T14:30:56;39.95;;;25.95;;
72949;SDS011;64868;45.710;9.590;2022-12-07T14:33:22;39.55;;;24.50;;
72949;SDS011;64868;45.710;9.590;2022-12-07T14:35:49;41.63;;;26.33;;
72949;SDS011;64868;45.710;9.590;2022-12-07T14:38:14;40.83;;;26.35;;
72949;SDS011;64868;45.710;9.590;2022-12-07T14:40:39;41.10;;;26.42;;
72949;SDS011;64868;45.710;9.590;2022-12-07T14:43:08;44.42;;;26.15;;
72949;SDS011;64868;45.710;9.590;2022-12-07T14:45:37;43.45;;;27.45;;
72949;SDS011;64868;45.710;9.590;2022-12-07T14:48:02;43.05;;;26.23;;
72949;SDS011;64868;45.710;9.590;2022-12-07T14:50:28;44.35;;;26.70;;
72949;SDS011;64868;45.710;9.590;2022-12-07T14:52:55;43.10;;;27.40;;
72949;SDS011;64868;45.710;9.590;2022-12-07T14:55:27;40.33;;;25.35;;
72949;SDS011;64868;45.710;9.590;2022-12-07T14:57:55;49.42;;;28.13;;
72949;SDS011;64868;45.710;9.590;2022-12-07T15:00:22;42.22;;;26.08;;
72949;SDS011;64868;45.710;9.590;2022-12-07T15:02:49;44.97;;;26.77;;
72949;SDS011;64868;45.710;9.590;2022-12-07T15:05:16;46.70;;;28.70;;
72949;SDS011;64868;45.710;9.590;2022-12-07T15:07:41;43.75;;;26.42;;
72949;SDS011;64868;45.710;9.590;2022-12-07T15:10:15;50.75;;;28.40;;
72949;SDS011;64868;45.710;9.590;2022-12-07T15:12:43;49.20;;;28.23;;
72949;SDS011;64868;45.710;9.590;2022-12-07T15:15:08;41.78;;;25.42;;
72949;SDS011;64868;45.710;9.590;2022-12-07T15:17:34;45.67;;;27.98;;
72949;SDS011;64868;45.710;9.590;2022-12-07T15:19:59;49.22;;;27.92;;
72949;SDS011;64868;45.710;9.590;2022-12-07T15:22:25;47.03;;;27.98;;
72949;SDS011;64868;45.710;9.590;2022-12-07T15:24:50;45.63;;;29.08;;
72949;SDS011;64868;45.710;9.590;2022-12-07T15:27:16;50.70;;;29.15;;
72949;SDS011;64868;45.710;9.590;2022-12-07T15:29:41;49.45;;;28.83;;
72949;SDS011;64868;45.710;9.590;2022-12-07T15:32:07;48.47;;;27.83;;
72949;SDS011;64868;45.710;9.590;2022-12-07T15:34:32;43.47;;;26.98;;
72949;SDS011;64868;45.710;9.590;2022-12-07T15:36:58;40.35;;;24.67;;
72949;SDS011;64868;45.710;9.590;2022-12-07T15:39:23;44.30;;;25.42;;
72949;SDS011;64868;45.710;9.590;2022-12-07T15:41:49;39.90;;;24.52;;
72949;SDS011;64868;45.710;9.590;2022-12-07T15:44:14;44.17;;;26.35;;
72949;SDS011;64868;45.710;9.590;2022-12-07T15:46:59;42.25;;;24.00;;
72949;SDS011;64868;45.710;9.590;2022-12-07T15:49:25;48.13;;;27.38;;
72949;SDS011;64868;45.710;9.590;2022-12-07T15:51:51;48.83;;;28.27;;
72949;SDS011;64868;45.710;9.590;2022-12-07T15:54:20;55.45;;;31.83;;
72949;SDS011;64868;45.710;9.590;2022-12-07T15:56:48;56.25;;;30.75;;
72949;SDS011;64868;45.710;9.590;2022-12-07T15:59:13;54.20;;;32.08;;
72949;SDS011;64868;45.710;9.590;2022-12-07T16:01:39;57.53;;;32.75;;
72949;SDS011;64868;45.710;9.590;2022-12-07T16:04:04;55.38;;;32.65;;
72949;SDS011;64868;45.710;9.590;2022-12-07T16:06:30;52.72;;;32.05;;
72949;SDS011;64868;45.710;9.590;2022-12-07T16:08:55;58.40;;;34.53;;
72949;SDS011;64868;45.710;9.590;2022-12-07T16:11:21;60.70;;;33.75;;
72949;SDS011;64868;45.710;9.590;2022-12-07T16:13:47;54.20;;;31.80;;
72949;SDS011;64868;45.710;9.590;2022-12-07T16:16:13;55.83;;;33.05;;
72949;SDS011;64868;45.710;9.590;2022-12-07T16:18:39;61.90;;;34.58;;
72949;SDS011;64868;45.710;9.590;2022-12-07T16:21:07;65.53;;;35.45;;
72949;SDS011;64868;45.710;9.590;2022-12-07T16:23:32;67.35;;;36.42;;
72949;SDS011;64868;45.710;9.590;2022-12-07T16:26:05;66.32;;;35.88;;
72949;SDS011;64868;45.710;9.590;2022-12-07T16:28:34;68.47;;;37.65;;
72949;SDS011;64868;45.710;9.590;2022-12-07T16:31:02;67.72;;;38.20;;
72949;SDS011;64868;45.710;9.590;2022-12-07T16:33:28;74.32;;;37.58;;
72949;SDS011;64868;45.710;9.590;2022-12-07T16:35:54;66.75;;;37.35;;
72949;SDS011;64868;45.710;9.590;2022-12-07T16:38:19;66.28;;;36.90;;
72949;SDS011;64868;45.710;9.590;2022-12-07T16:40:46;71.03;;;36.55;;
72949;SDS011;64868;45.710;9.590;2022-12-07T16:43:12;63.92;;;35.63;;
72949;SDS011;64868;45.710;9.590;2022-12-07T16:45:39;62.53;;;35.80;;
72949;SDS011;64868;45.710;9.590;2022-12-07T16:48:04;62.50;;;34.05;;
72949;SDS011;64868;45.710;9.590;2022-12-07T16:50:30;61.88;;;32.80;;
72949;SDS011;64868;45.710;9.590;2022-12-07T16:52:55;62.38;;;34.85;;
72949;SDS011;64868;45.710;9.590;2022-12-07T16:55:21;68.03;;;38.33;;
72949;SDS011;64868;45.710;9.590;2022-12-07T16:57:46;78.35;;;40.08;;